• Join FlightAware (Why Join?)
  • Login
  • US Flag 
11:03PM EDT


 

Airport Tracker/Info


-or-


 

Live Flight TrackerFlight Track Log ✈ N45N ✈ 20-Jun-2013 ✈ KEVV - KVBW

Flight Track Log - Related Links

Times and Time Zones

All times are in EDT time to prevent confusion due to time zone crossing. See the N45N flight status page for this flight to view local times or setup timezone preferences in your user account.

Time Position Orientation Groundspeed Altitude Reporting Facility
EDT Latitude Longitude Course Direction KTS MPH feet Rate Location/Type
11:09AM 37.9839 -87.4931 93° East 151 174 3,200  Level Indianapolis Center
11:10AM 37.9875 -87.4406 85° East 150 173 4,300 1,020 Climbing Indianapolis Center
11:11AM 37.9908 -87.3842 86° East 154 177 5,400 1,260 Climbing Indianapolis Center
11:12AM 37.9989 -87.3164 81° East 160 184 7,000 1,380 Climbing Indianapolis Center
11:13AM 38.0698 -87.1013 82° East  Level Estimated
11:13AM 38.0036 -87.2592 84° East 163 188 8,300  Level Indianapolis Center
11:14AM 38.0672 -87.0295 93° East  Level FlightAware Approximate
11:14AM 38.0081 -87.2014 84° East 164 189 9,600  Level Indianapolis Center
11:15AM 38.0106 -87.1431 87° East 166 191 10,800 1,200 Climbing Indianapolis Center
11:16AM 38.0172 -87.0839 82° East 169 194 12,200 1,200 Climbing Indianapolis Center
11:17AM 38.0261 -87.0261 79° East 168 193 13,300 1,200 Climbing Indianapolis Center
11:18AM 38.0261 -86.9539 90° East 171 197 14,700 1,140 Climbing Indianapolis Center
11:19AM 38.0328 -86.8936 82° East 173 199 15,700 960 Climbing Indianapolis Center
11:20AM 38.0378 -86.8336 84° East 172 198 16,800 960 Climbing Indianapolis Center
11:21AM 38.0444 -86.7728 82° East 172 198 17,800 720 Climbing Indianapolis Center
11:22AM 38.0492 -86.7128 84° East 171 197 18,400 660 Climbing Indianapolis Center
11:23AM 38.0536 -86.6494 85° East 178 205 19,200 780 Climbing Indianapolis Center
11:24AM 38.0572 -86.5747 86° East 177 204 20,100 720 Climbing Indianapolis Center
11:25AM 38.0606 -86.5092 86° East 184 212 20,700 540 Climbing Indianapolis Center
11:26AM 38.0667 -86.4422 83° East 190 219 21,300 540 Climbing Indianapolis Center
11:27AM 38.0714 -86.3753 85° East 189 217 21,900 480 Climbing Indianapolis Center
11:28AM 38.0744 -86.3058 87° East 195 224 22,300 420 Climbing Indianapolis Center
11:29AM 38.0792 -86.2369 85° East 198 228 22,800 300 Climbing Indianapolis Center
11:31AM 38.0833 -86.1664 86° East 199 229 23,000 60 Climbing Indianapolis Center
11:32AM 38.0872 -86.0758 87° East 212 244 23,000  Level Indianapolis Center
11:33AM 38.0944 -85.9992 83° East 218 251 23,000  Level Indianapolis Center
11:34AM 38.1006 -85.9231 84° East 217 250 23,000  Level Indianapolis Center
11:35AM 38.1086 -85.8456 82° East 220 253 23,000  Level Indianapolis Center
11:36AM 38.1142 -85.7686 85° East 219 252 23,000  Level Indianapolis Center
11:37AM 38.1211 -85.6911 83° East 221 254 23,000  Level Indianapolis Center
11:38AM 38.1253 -85.6133 86° East 220 253 23,000  Level Indianapolis Center
11:39AM 38.1314 -85.5197 85° East 221 254 23,000  Level Indianapolis Center
11:40AM 38.1364 -85.4414 85° East 221 254 23,000  Level Indianapolis Center
11:41AM 38.1417 -85.3628 85° East 223 257 23,000  Level Indianapolis Center
11:42AM 38.1469 -85.2842 85° East 224 258 23,000  Level Indianapolis Center
11:43AM 38.1506 -85.1964 87° East 221 254 23,000  Level Indianapolis Center
11:44AM 38.1550 -85.1194 86° East 218 251 23,000  Level Indianapolis Center
11:45AM 38.1594 -85.0425 86° East 217 250 23,000  Level Indianapolis Center
11:46AM 38.1644 -84.9647 85° East 218 251 23,000  Level Indianapolis Center
11:47AM 38.1686 -84.8886 86° East 218 251 23,000  Level Indianapolis Center
11:48AM 38.1717 -84.8131 87° East 215 247 23,000  Level Indianapolis Center
11:49AM 38.1772 -84.7233 85° East 217 250 23,000  Level Indianapolis Center
11:50AM 38.1814 -84.6469 86° East 217 250 23,000  Level Indianapolis Center
11:51AM 38.1875 -84.5700 84° East 218 251 23,000  Level Indianapolis Center
11:52AM 38.1906 -84.4936 87° East 217 250 23,000  Level Indianapolis Center
11:53AM 38.1950 -84.4167 86° East 218 251 23,000  Level Indianapolis Center
11:54AM 38.1989 -84.3272 87° East 218 251 23,000  Level Indianapolis Center
11:55AM 38.2033 -84.2525 86° East 215 247 23,000  Level Indianapolis Center
11:56AM 38.2081 -84.1747 86° East 215 247 23,000  Level Indianapolis Center
11:57AM 38.2125 -84.0972 86° East 218 251 23,000  Level Indianapolis Center
11:58AM 38.2158 -84.0214 87° East 216 249 23,000  Level Indianapolis Center
11:59AM 38.2194 -83.9467 86° East 213 245 23,000  Level Indianapolis Center
12:01PM 38.2236 -83.8586 87° East 214 246 23,000  Level Indianapolis Center
12:02PM 38.2286 -83.7839 85° East 213 245 23,000  Level Indianapolis Center
12:03PM 38.2311 -83.7097 88° East 212 244 23,000  Level Indianapolis Center
12:04PM 38.2350 -83.6331 86° East 215 247 23,000  Level Indianapolis Center
12:05PM 38.2389 -83.5581 86° East 214 246 23,000  Level Indianapolis Center
12:06PM 38.2431 -83.4694 87° East 215 247 23,000  Level Indianapolis Center
12:07PM 38.2467 -83.3928 87° East 215 247 23,000  Level Indianapolis Center
12:08PM 38.2497 -83.3164 87° East 216 249 23,000  Level Indianapolis Center
12:09PM 38.2533 -83.2394 87° East 216 249 23,000  Level Indianapolis Center
12:10PM 38.2564 -83.1619 87° East 217 250 23,000  Level Indianapolis Center
12:11PM 38.2603 -83.0858 86° East 215 247 23,000  Level Indianapolis Center
12:12PM 38.2644 -82.9958 87° East 217 250 23,000  Level Indianapolis Center
12:13PM 38.2681 -82.9192 87° East 216 249 23,000  Level Indianapolis Center
12:14PM 38.2725 -82.8411 86° East 218 251 23,000  Level Indianapolis Center
12:15PM 38.2756 -82.7650 87° East 215 247 23,000  Level Indianapolis Center
12:16PM 38.2786 -82.6872 87° East 219 252 23,000  Level Indianapolis Center
12:17PM 38.2806 -82.6117 88° East 215 247 23,000  Level Indianapolis Center
12:18PM 38.2839 -82.5206 87° East 217 250 23,000  Level Indianapolis Center
12:19PM 38.2861 -82.4536 88° East 220 253 23,000  Level Indianapolis Center
12:21PM 38.2916 -82.3517 86° East  Level FlightAware Approximate
12:21PM 38.2931 -82.2850 86° East 217 250 23,000  Level Indianapolis Center
12:22PM 38.2967 -82.2083 87° East 217 250 23,000  Level Indianapolis Center
12:23PM 38.2989 -82.1303 88° East 219 252 23,000  Level Indianapolis Center
12:24PM 38.3017 -82.0531 87° East 218 251 23,000  Level Indianapolis Center
12:25PM 38.3047 -81.9758 87° East 219 252 23,000  Level Indianapolis Center
12:26PM 38.3069 -81.8997 88° East 217 250 23,000  Level Indianapolis Center
12:27PM 38.3100 -81.8083 88° East 216 249 23,000  Level Indianapolis Center
12:28PM 38.3119 -81.7319 88° East 217 250 23,000  Level Indianapolis Center
12:29PM 38.3147 -81.6544 87° East 219 252 23,000  Level Indianapolis Center
12:30PM 38.3161 -81.5772 89° East 219 252 23,000  Level Indianapolis Center
12:31PM 38.3189 -81.5006 87° East 219 252 23,000  Level Indianapolis Center
12:33PM 38.3214 -81.4233 88° East 219 252 23,000  Level Indianapolis Center
12:34PM 38.3233 -81.3300 88° East 220 253 23,000  Level Indianapolis Center
12:35PM 38.3250 -81.2519 88° East 221 254 23,000  Level Indianapolis Center
12:36PM 38.3283 -81.1736 87° East 221 254 23,000  Level Indianapolis Center
12:37PM 38.3308 -81.0950 88° East 223 257 23,000  Level Indianapolis Center
12:38PM 38.3331 -81.0175 88° East 221 254 23,000  Level Indianapolis Center
12:39PM 38.3353 -80.9389 88° East 221 254 23,000  Level Indianapolis Center
12:40PM 38.3369 -80.8433 89° East 224 258 23,000  Level Indianapolis Center
12:41PM 38.3381 -80.7653 89° East 222 255 23,000  Level Indianapolis Center
12:42PM 38.3394 -80.6847 89° East 226 260 23,000  Level Indianapolis Center
12:43PM 38.3411 -80.6061 88° East 223 257 23,000 -60 Level Indianapolis Center
12:44PM 38.3439 -80.5275 87° East 223 257 22,900 -540 Descending Indianapolis Center
12:45PM 38.3456 -80.4494 88° East 220 253 22,000 -1,200 Descending Indianapolis Center
12:46PM 38.3447 -80.3533 91° East 226 260 20,500 -1,260 Descending Indianapolis Center
12:47PM 38.3450 -80.2717 90° East 231 266 19,400 -1,020 Descending Indianapolis Center
12:48PM 38.3486 -80.1925 87° East 224 258 18,400 -1,020 Descending Indianapolis Center
12:49PM 38.3506 -80.1156 88° East 218 251 17,400 -1,020 Descending Indianapolis Center
12:50PM 38.3497 -80.0406 91° East 214 246 16,400 -960 Descending Indianapolis Center
12:51PM 38.3525 -79.9692 87° East 206 237 15,500 -1,080 Descending Indianapolis Center
12:52PM 38.3422 -79.8853 99° East 200 230 14,200 -1,020 Descending Indianapolis Center
12:53PM 38.3453 -79.8039 87° East 199 229 13,300 -780 Descending Washington Center